Time;durP1;ratioP1;P1;durP2;ratioP2;P2;SDS_P1;SDS_P2;PMS_P1;PMS_P2;Temp;Humidity;BMP_temperature;BMP_pressure;BME280_temperature;BME280_humidity;BME280_pressure;Samples;Min_cycle;Max_cycle;Signal;HPM_P1;HPM_P2
2022/07/05 00:02:26;;;;;;;;;1.00;1.00;;;;;20.76;45.75;101773.97;4997851;28;45463;-65
2022/07/05 00:04:51;;;;;;;;;2.00;2.00;;;;;20.69;45.70;101764.94;4997765;28;45285;-65
2022/07/05 00:07:18;;;;;;;;;3.33;1.33;;;;;20.65;45.92;101758.22;4978663;28;45465;-65
2022/07/05 00:09:45;;;;;;;;;1.00;1.00;;;;;20.74;45.88;101786.81;4978314;28;45614;-65
2022/07/05 00:12:13;;;;;;;;;2.00;1.00;;;;;20.73;45.87;101785.16;4978356;28;45359;-65
2022/07/05 00:14:39;;;;;;;;;3.00;1.00;;;;;20.39;46.09;101741.56;4978445;28;45286;-65
2022/07/05 00:17:04;;;;;;;;;1.00;1.00;;;;;20.67;45.99;101794.00;4993528;28;45554;-64
2022/07/05 00:19:30;;;;;;;;;1.00;1.00;;;;;20.62;45.74;101774.78;4976569;28;47552;-64
2022/07/05 00:21:56;;;;;;;;;3.00;1.00;;;;;20.70;45.76;101792.78;4976764;28;45607;-64
2022/07/05 00:24:21;;;;;;;;;1.67;1.67;;;;;20.64;45.83;101797.06;4976877;28;45823;-64
2022/07/05 00:26:46;;;;;;;;;2.00;2.00;;;;;20.65;45.95;101798.75;4977582;28;45482;-64
2022/07/05 00:29:12;;;;;;;;;3.00;2.00;;;;;20.58;46.19;101789.69;4977896;28;47464;-66
2022/07/05 00:31:37;;;;;;;;;0.67;0.67;;;;;20.48;46.63;101789.13;4982695;28;45332;-65
2022/07/05 00:34:02;;;;;;;;;1.00;1.00;;;;;20.37;46.62;101779.56;4997676;28;45347;-65
2022/07/05 00:36:28;;;;;;;;;0.00;0.00;;;;;20.29;46.68;101785.88;4997876;28;45213;-65
2022/07/05 00:38:53;;;;;;;;;1.00;1.00;;;;;20.10;47.12;101747.75;4996295;28;48467;-65
2022/07/05 00:41:28;;;;;;;;;1.67;1.00;;;;;20.18;46.96;101764.72;4996201;28;45392;-64
2022/07/05 00:43:56;;;;;;;;;1.00;1.00;;;;;20.36;46.96;101800.31;4997761;28;45309;-65
2022/07/05 00:46:25;;;;;;;;;2.00;2.00;;;;;20.34;47.14;101788.03;4997670;28;45225;-64
2022/07/05 00:48:51;;;;;;;;;1.00;1.00;;;;;20.18;47.45;101767.41;4997086;28;46842;-64
2022/07/05 00:51:17;;;;;;;;;1.00;1.00;;;;;20.30;47.08;101789.44;4997017;28;45356;-64
2022/07/05 00:53:43;;;;;;;;;0.67;0.67;;;;;20.30;46.93;101794.81;4996164;28;45572;-64
2022/07/05 00:56:09;;;;;;;;;1.33;0.67;;;;;20.14;46.85;101766.09;4997702;28;45486;-65
2022/07/05 00:58:35;;;;;;;;;2.67;2.67;;;;;20.31;47.07;101804.59;4996962;28;45415;-64
2022/07/05 01:01:04;;;;;;;;;1.00;1.00;;;;;20.18;47.10;101786.31;4982235;28;45562;-64
2022/07/05 01:03:29;;;;;;;;;2.00;1.00;;;;;19.71;47.26;101709.09;4995683;28;45367;-66
2022/07/05 01:05:55;;;;;;;;;2.00;2.00;;;;;20.08;47.33;101780.34;4997270;28;45582;-64
2022/07/05 01:08:23;;;;;;;;;2.00;2.00;;;;;20.21;47.43;101804.84;4997109;28;46338;-65
2022/07/05 01:10:50;;;;;;;;;2.00;2.00;;;;;20.03;47.04;101764.69;4990641;28;45561;-65
2022/07/05 01:13:16;;;;;;;;;1.00;1.00;;;;;20.18;47.49;101789.00;4978239;28;45544;-65
2022/07/05 01:15:42;;;;;;;;;3.00;2.00;;;;;20.11;47.48;101788.06;4977873;28;45318;-64
2022/07/05 01:18:08;;;;;;;;;3.33;2.00;;;;;19.99;47.48;101762.50;5008778;28;48583;-65
2022/07/05 01:20:34;;;;;;;;;1.00;1.00;;;;;19.85;47.69;101742.56;4977236;28;45472;-65
2022/07/05 01:23:01;;;;;;;;;1.00;0.67;;;;;19.94;47.58;101762.22;4977160;28;45320;-65
2022/07/05 01:25:29;;;;;;;;;1.00;1.00;;;;;20.08;47.61;101788.44;4976180;28;45306;-64
2022/07/05 01:27:59;;;;;;;;;1.00;1.00;;;;;19.78;47.84;101743.44;4977038;28;46030;-66
2022/07/05 01:30:25;;;;;;;;;1.33;1.33;;;;;19.71;48.02;101743.34;4990457;28;45268;-65
2022/07/05 01:32:50;;;;;;;;;0.00;0.00;;;;;19.83;47.59;101768.06;4997013;28;45474;-66
2022/07/05 01:35:20;;;;;;;;;2.00;2.00;;;;;19.90;47.79;101780.63;4996981;28;45340;-65
2022/07/05 01:37:47;;;;;;;;;0.00;0.00;;;;;19.84;47.98;101775.13;4997913;28;46345;-65
2022/07/05 01:40:13;;;;;;;;;1.00;1.00;;;;;19.78;47.96;101778.53;5000024;28;45591;-65
2022/07/05 01:42:39;;;;;;;;;1.00;1.00;;;;;19.66;48.43;101773.56;5000323;28;45226;-65
2022/07/05 01:45:06;;;;;;;;;1.00;1.00;;;;;19.72;48.36;101783.63;4999022;28;45512;-65
2022/07/05 01:47:35;;;;;;;;;0.67;0.67;;;;;19.55;48.47;101765.00;4999949;28;46314;-66
2022/07/05 01:50:04;;;;;;;;;1.00;1.00;;;;;19.05;48.60;101688.94;5000132;28;45300;-65
2022/07/05 01:52:31;;;;;;;;;1.00;1.00;;;;;19.55;48.97;101765.84;5000043;28;45529;-65
2022/07/05 01:54:57;;;;;;;;;1.00;1.00;;;;;19.58;48.94;101776.28;5000660;28;45504;-65
2022/07/05 01:57:23;;;;;;;;;2.00;2.00;;;;;19.65;48.61;101788.06;4999770;28;46560;-65
2022/07/05 01:59:48;;;;;;;;;3.00;1.67;;;;;19.59;47.87;101779.81;4990158;28;45486;-65
2022/07/05 02:02:14;;;;;;;;;2.00;1.00;;;;;19.58;48.24;101778.97;4980126;28;45355;-65
2022/07/05 02:04:41;;;;;;;;;2.00;1.33;;;;;19.10;48.35;101704.56;4980598;28;45545;-64
2022/07/05 02:07:08;;;;;;;;;0.00;0.00;;;;;19.28;48.82;101747.44;4980915;28;45498;-64
2022/07/05 02:09:34;;;;;;;;;2.00;2.00;;;;;19.43;49.12;101776.19;4986660;28;45381;-65
2022/07/05 02:12:00;;;;;;;;;1.00;1.00;;;;;19.24;49.59;101756.91;4979957;28;45206;-65
2022/07/05 02:14:25;;;;;;;;;1.00;1.00;;;;;19.42;49.57;101781.72;4980306;28;45538;-65
2022/07/05 02:16:50;;;;;;;;;2.33;2.33;;;;;19.38;49.92;101773.16;4979796;28;47270;-65
2022/07/05 02:19:16;;;;;;;;;0.00;0.00;;;;;19.43;50.52;101780.75;4980090;28;45491;-65
2022/07/05 02:21:41;;;;;;;;;2.67;1.33;;;;;18.99;50.48;101711.19;4980027;28;45465;-65
2022/07/05 02:24:07;;;;;;;;;1.00;1.00;;;;;19.42;51.20;101776.34;4980070;28;45423;-65
2022/07/05 02:26:32;;;;;;;;;2.33;2.33;;;;;19.34;51.66;101774.53;4979705;28;46562;-66
2022/07/05 02:28:59;;;;;;;;;1.00;1.00;;;;;19.17;51.79;101737.03;4983994;28;45676;-65
2022/07/05 02:31:24;;;;;;;;;3.00;3.00;;;;;19.37;52.21;101781.44;4999523;28;45426;-66
2022/07/05 02:33:52;;;;;;;;;3.33;2.33;;;;;19.37;52.18;101786.81;4999603;28;45376;-65
2022/07/05 02:36:17;;;;;;;;;2.00;2.00;;;;;19.30;52.66;101784.00;4999244;28;46785;-65
2022/07/05 02:38:43;;;;;;;;;2.00;2.00;;;;;19.18;52.56;101780.00;4999058;28;45199;-64
2022/07/05 02:41:09;;;;;;;;;2.67;2.33;;;;;18.57;52.62;101671.06;4997810;28;45525;-65
2022/07/05 02:43:35;;;;;;;;;2.00;2.00;;;;;19.19;52.54;101764.66;4999477;28;45261;-63
2022/07/05 02:46:02;;;;;;;;;2.00;2.00;;;;;19.28;52.65;101786.03;4999196;28;45505;-65
2022/07/05 02:48:28;;;;;;;;;3.00;2.00;;;;;18.92;53.00;101726.38;4997921;28;45468;-65
2022/07/05 02:50:54;;;;;;;;;1.00;1.00;;;;;19.15;53.45;101777.66;4997214;28;45441;-65
2022/07/05 02:53:19;;;;;;;;;4.00;2.00;;;;;19.15;53.33;101775.81;4997848;28;45284;-64
2022/07/05 02:55:44;;;;;;;;;2.67;1.33;;;;;19.14;53.68;101784.06;4998774;28;52992;-65
2022/07/05 02:58:10;;;;;;;;;3.67;2.00;;;;;19.08;53.76;101774.00;4998934;28;45291;-65
2022/07/05 03:00:35;;;;;;;;;2.33;1.67;;;;;18.52;53.78;101685.06;4980289;28;45248;-65
2022/07/05 03:03:00;;;;;;;;;1.33;1.33;;;;;18.63;53.88;101701.91;4979583;28;45598;-65
2022/07/05 03:05:26;;;;;;;;;2.00;2.00;;;;;18.98;53.60;101763.41;4979157;28;45621;-65
2022/07/05 03:07:51;;;;;;;;;2.00;2.00;;;;;19.02;54.00;101778.22;4977829;28;45483;-65
2022/07/05 03:10:17;;;;;;;;;3.67;3.00;;;;;18.93;54.13;101763.09;4979302;28;45341;-65
2022/07/05 03:12:42;;;;;;;;;1.00;1.00;;;;;18.93;54.34;101781.13;4979258;28;45359;-65
2022/07/05 03:15:08;;;;;;;;;2.00;2.00;;;;;18.91;53.95;101773.22;4978863;28;45624;-64
2022/07/05 03:17:33;;;;;;;;;3.67;3.67;;;;;17.89;54.17;101604.31;4978882;28;45460;-64
2022/07/05 03:19:58;;;;;;;;;5.33;5.33;;;;;18.96;54.47;101786.16;4979147;28;45510;-64
2022/07/05 03:22:24;;;;;;;;;3.33;3.00;;;;;18.91;54.51;101789.38;4979155;28;45512;-64
2022/07/05 03:24:49;;;;;;;;;4.00;2.00;;;;;18.89;54.89;101786.00;4978826;28;47008;-65
2022/07/05 03:27:14;;;;;;;;;4.00;3.00;;;;;18.49;54.58;101709.66;4978712;28;45522;-65
2022/07/05 03:29:40;;;;;;;;;1.33;1.33;;;;;18.76;54.69;101753.38;4990241;28;53500;-65
2022/07/05 03:32:06;;;;;;;;;5.67;4.00;;;;;18.74;55.06;101769.72;4998297;28;45415;-65
2022/07/05 03:34:31;;;;;;;;;2.33;1.67;;;;;18.80;54.94;101789.72;4997993;28;45510;-64
2022/07/05 03:36:56;;;;;;;;;4.00;3.00;;;;;18.83;55.33;101786.72;4998078;28;45404;-66
2022/07/05 03:39:22;;;;;;;;;5.67;3.33;;;;;18.74;55.14;101787.72;4997649;28;45434;-65
2022/07/05 03:41:47;;;;;;;;;3.00;3.00;;;;;18.77;55.36;101793.59;4998347;28;45482;-66
2022/07/05 03:44:13;;;;;;;;;3.00;1.67;;;;;18.47;55.65;101753.94;4997983;28;46713;-65
2022/07/05 03:46:38;;;;;;;;;3.00;1.00;;;;;18.76;55.18;101791.09;4998060;28;45308;-65
2022/07/05 03:49:03;;;;;;;;;3.33;3.33;;;;;18.67;55.78;101802.91;4998156;28;45411;-65
2022/07/05 03:51:29;;;;;;;;;2.00;2.00;;;;;18.57;55.72;101791.44;4998065;28;45390;-65
2022/07/05 03:53:54;;;;;;;;;3.00;3.00;;;;;18.16;55.88;101724.19;4997858;28;45843;-64
2022/07/05 03:56:22;;;;;;;;;2.00;2.00;;;;;18.72;55.77;101820.22;4998116;28;45546;-65
2022/07/05 03:58:49;;;;;;;;;3.33;2.33;;;;;18.21;55.43;101737.97;4991267;28;45552;-65
2022/07/05 04:01:15;;;;;;;;;5.67;4.00;;;;;18.68;55.70;101809.97;4977478;28;45183;-64
2022/07/05 04:03:40;;;;;;;;;4.67;3.00;;;;;18.75;55.46;101817.19;4978078;28;45881;-64
2022/07/05 04:06:07;;;;;;;;;3.33;3.33;;;;;18.77;55.72;101817.00;4978090;28;45486;-65
2022/07/05 04:08:33;;;;;;;;;5.00;3.67;;;;;18.79;56.19;101823.91;4978486;28;45455;-64
2022/07/05 04:10:58;;;;;;;;;2.33;2.00;;;;;18.80;55.71;101822.06;4976927;28;45563;-64
2022/07/05 04:13:23;;;;;;;;;4.00;3.00;;;;;18.78;55.89;101816.84;4977812;28;46060;-65
2022/07/05 04:15:49;;;;;;;;;5.00;3.00;;;;;18.52;55.66;101787.41;4976779;28;45639;-65
2022/07/05 04:18:14;;;;;;;;;3.00;3.00;;;;;18.75;55.92;101832.50;4977931;28;45411;-64
2022/07/05 04:20:40;;;;;;;;;4.00;4.00;;;;;18.62;55.88;101802.53;4977573;28;45405;-65
2022/07/05 04:23:05;;;;;;;;;4.67;4.00;;;;;18.75;55.84;101827.13;4978051;28;46466;-65
2022/07/05 04:25:31;;;;;;;;;5.00;3.67;;;;;18.67;55.90;101811.84;4977835;28;45298;-67
2022/07/05 04:27:56;;;;;;;;;3.00;3.00;;;;;18.80;55.97;101840.91;4978021;28;45259;-66
2022/07/05 04:30:24;;;;;;;;;4.33;4.33;;;;;18.74;55.94;101825.44;4997832;28;45458;-65
2022/07/05 04:32:49;;;;;;;;;1.00;1.00;;;;;18.77;55.58;101825.94;4997469;28;46483;-66
2022/07/05 04:35:14;;;;;;;;;2.00;2.00;;;;;18.84;56.03;101839.59;5012564;28;45517;-65
2022/07/05 04:37:41;;;;;;;;;3.00;3.00;;;;;18.81;56.08;101831.81;4996182;28;45882;-65
2022/07/05 04:40:09;;;;;;;;;4.00;4.00;;;;;18.78;56.02;101826.78;4997521;28;45528;-64
2022/07/05 04:42:34;;;;;;;;;6.67;6.67;;;;;18.80;56.24;101822.06;4997035;28;47075;-65
2022/07/05 04:45:00;;;;;;;;;4.00;3.33;;;;;18.88;56.13;101843.63;4997263;28;45464;-65
2022/07/05 04:47:25;;;;;;;;;5.00;5.00;;;;;18.87;55.99;101841.94;4997431;28;45428;-65
2022/07/05 04:49:51;;;;;;;;;7.33;4.00;;;;;18.88;56.15;101843.63;4997570;28;45471;-65
2022/07/05 04:52:17;;;;;;;;;4.00;4.00;;;;;18.75;56.16;101813.66;4997055;28;45724;-64
2022/07/05 04:54:42;;;;;;;;;6.67;5.00;;;;;18.76;56.20;101818.03;4996772;28;47838;-64
2022/07/05 04:57:08;;;;;;;;;9.67;9.67;;;;;18.92;56.47;101850.34;4997356;28;45743;-65
2022/07/05 04:59:33;;;;;;;;;5.33;4.00;;;;;18.75;56.35;101816.34;4993564;28;45447;-64
2022/07/05 05:01:58;;;;;;;;;11.33;10.33;;;;;18.88;56.47;101838.22;4996050;28;46804;-65
2022/07/05 05:04:24;;;;;;;;;2.33;2.33;;;;;18.80;56.70;101827.44;4995514;28;45651;-65
2022/07/05 05:06:49;;;;;;;;;4.33;3.00;;;;;18.80;56.31;101835.53;4996676;28;45625;-65
2022/07/05 05:09:14;;;;;;;;;7.00;5.67;;;;;18.35;56.43;101757.97;4997047;28;45339;-66
2022/07/05 05:11:40;;;;;;;;;7.00;4.00;;;;;18.94;56.27;101855.56;4996878;28;45578;-64
2022/07/05 05:14:05;;;;;;;;;5.67;4.33;;;;;18.97;56.20;101852.50;4999761;28;45510;-65
2022/07/05 05:16:31;;;;;;;;;4.00;4.00;;;;;18.98;56.24;101855.03;5000586;28;45372;-65
2022/07/05 05:18:56;;;;;;;;;4.00;4.00;;;;;18.93;56.03;101838.53;5000507;28;45559;-64
2022/07/05 05:21:21;;;;;;;;;4.00;4.00;;;;;19.02;56.05;101855.53;4987337;28;46883;-65
2022/07/05 05:23:47;;;;;;;;;4.00;4.00;;;;;19.03;56.21;101847.28;4997673;28;45503;-65
2022/07/05 05:26:12;;;;;;;;;7.67;6.33;;;;;18.83;56.36;101827.13;5000391;28;45662;-66
2022/07/05 05:28:38;;;;;;;;;7.33;6.00;;;;;18.99;55.91;101851.31;5000284;28;45426;-65
2022/07/05 05:31:04;;;;;;;;;8.33;6.67;;;;;19.06;55.64;101862.28;4992302;28;47588;-65
2022/07/05 05:33:29;;;;;;;;;5.00;4.00;;;;;19.07;55.74;101859.41;4999944;28;45609;-65
2022/07/05 05:35:55;;;;;;;;;4.00;4.00;;;;;18.99;56.03;101845.94;5000329;28;45435;-66
2022/07/05 05:38:20;;;;;;;;;4.33;4.33;;;;;19.11;55.69;101866.13;5000400;28;45395;-70
2022/07/05 05:40:46;;;;;;;;;9.33;6.67;;;;;18.75;55.62;101800.19;4994012;28;46228;-65
2022/07/05 05:43:11;;;;;;;;;4.00;3.33;;;;;19.02;55.72;101851.00;4999502;28;45226;-66
2022/07/05 05:45:37;;;;;;;;;6.33;5.00;;;;;19.19;55.97;101873.34;4993698;28;45457;-66
2022/07/05 05:48:03;;;;;;;;;7.67;7.33;;;;;19.22;55.65;101872.16;4985206;28;45269;-65
2022/07/05 05:50:34;;;;;;;;;4.00;4.00;;;;;19.23;55.70;101871.16;4986188;28;46701;-65
2022/07/05 05:53:00;;;;;;;;;4.33;4.33;;;;;18.89;55.92;101815.66;4980001;28;45187;-66
2022/07/05 05:55:29;;;;;;;;;6.00;5.00;;;;;19.32;56.02;101879.03;4991925;28;45440;-66
2022/07/05 05:57:55;;;;;;;;;57.25;47.25;;;;;19.42;55.56;101871.59;4998124;28;45546;-66
2022/07/05 06:00:21;;;;;;;;;8.00;7.00;;;;;19.62;55.42;101880.16;4982962;28;46583;-67
2022/07/05 06:02:49;;;;;;;;;6.00;6.00;;;;;19.72;54.61;101886.16;4979705;28;45542;-65
2022/07/05 06:05:15;;;;;;;;;6.00;6.00;;;;;19.78;54.87;101875.66;4979757;28;45338;-66
2022/07/05 06:07:51;;;;;;;;;9.33;8.33;;;;;20.05;54.62;101878.72;4981757;28;45385;-65
2022/07/05 06:10:19;;;;;;;;;5.00;5.00;;;;;20.42;53.67;101882.53;4998920;28;46520;-65
2022/07/05 06:12:45;;;;;;;;;7.67;7.67;;;;;20.75;52.73;101882.25;4999322;28;45160;-66
2022/07/05 06:15:10;;;;;;;;;7.67;5.67;;;;;20.85;52.31;101835.03;4997500;28;45608;-66
2022/07/05 06:17:37;;;;;;;;;10.33;9.33;;;;;21.58;51.20;101881.19;4999611;28;45158;-65
2022/07/05 06:20:11;;;;;;;;;11.00;6.67;;;;;21.96;50.08;101882.69;4998989;28;45921;-67
2022/07/05 06:22:36;;;;;;;;;4.33;4.33;;;;;22.32;48.86;101880.00;4998979;28;45426;-75
2022/07/05 06:25:02;;;;;;;;;11.00;7.00;;;;;22.48;48.21;101848.25;4984490;28;45344;-67
2022/07/05 06:27:28;;;;;;;;;6.00;6.00;;;;;22.88;47.36;101865.69;4979344;28;45282;-66
2022/07/05 06:29:53;;;;;;;;;7.33;6.33;;;;;23.08;46.46;101855.81;4979003;28;46136;-70
2022/07/05 06:32:19;;;;;;;;;8.33;6.33;;;;;23.41;45.71;101866.00;4990175;28;45395;-66
2022/07/05 06:34:44;;;;;;;;;5.33;5.33;;;;;23.67;45.33;101877.03;4978908;28;45428;-66
2022/07/05 06:37:09;;;;;;;;;5.67;5.67;;;;;23.90;45.10;101882.13;4981948;28;45535;-65
2022/07/05 06:39:35;;;;;;;;;8.00;6.00;;;;;23.99;44.07;101853.72;4993401;28;47256;-66
2022/07/05 06:42:00;;;;;;;;;7.00;6.00;;;;;24.33;43.86;101877.22;4998893;28;45594;-68
2022/07/05 06:44:26;;;;;;;;;16.33;14.00;;;;;24.26;43.67;101851.88;4998790;28;45328;-65
2022/07/05 06:46:51;;;;;;;;;23.67;17.33;;;;;24.64;43.46;101878.50;4998982;28;45486;-67
2022/07/05 06:49:16;;;;;;;;;9.00;8.67;;;;;24.88;42.69;101896.91;4998776;28;45713;-67
2022/07/05 06:51:42;;;;;;;;;5.67;4.33;;;;;24.90;42.50;101864.03;4998858;28;45273;-66
2022/07/05 06:54:07;;;;;;;;;9.67;8.67;;;;;25.00;41.87;101854.41;4999099;28;45539;-67
2022/07/05 06:56:32;;;;;;;;;7.33;7.33;;;;;25.33;41.55;101884.28;4999260;28;45273;-67
2022/07/05 06:59:04;;;;;;;;;9.00;8.33;;;;;25.43;41.16;101879.25;4998745;28;45698;-69
2022/07/05 07:01:29;;;;;;;;;8.00;8.00;;;;;25.52;41.12;101876.25;4998270;28;45494;-66
2022/07/05 07:03:55;;;;;;;;;7.67;6.33;;;;;25.71;40.50;101889.81;4998872;28;45395;-66
2022/07/05 07:06:21;;;;;;;;;19.00;14.00;;;;;25.85;40.84;101893.34;4998089;28;46357;-66
2022/07/05 07:11:30;;;;;;;;;7.00;7.00;;;;;25.59;39.46;101811.69;4998328;28;45565;-67
2022/07/05 07:13:56;;;;;;;;;6.67;6.67;;;;;26.16;40.92;101884.34;4998551;28;45561;-67
2022/07/05 07:16:21;;;;;;;;;9.67;8.67;;;;;25.83;39.30;101802.81;4998356;28;45139;-68
2022/07/05 07:18:46;;;;;;;;;9.33;8.00;;;;;26.45;39.38;101876.63;4981307;28;45755;-66
2022/07/05 07:21:12;;;;;;;;;15.00;15.00;;;;;26.59;39.64;101886.34;4973330;28;45386;-65
2022/07/05 07:23:37;;;;;;;;;7.67;7.67;;;;;26.64;39.61;101878.38;4977473;28;45299;-65
2022/07/05 07:26:03;;;;;;;;;12.00;10.00;;;;;26.74;38.68;101877.84;4978886;28;45346;-66
2022/07/05 07:28:29;;;;;;;;;7.00;7.00;;;;;26.76;37.69;101876.56;4976702;28;46614;-65
2022/07/05 07:30:55;;;;;;;;;10.33;8.33;;;;;26.96;37.39;101895.47;4977006;28;45385;-65
2022/07/05 07:33:21;;;;;;;;;8.67;8.67;;;;;27.02;37.23;101900.06;4978230;28;45453;-64
2022/07/05 07:35:46;;;;;;;;;9.67;9.00;;;;;26.96;37.08;101900.94;4978513;28;45294;-65
2022/07/05 07:38:17;;;;;;;;;10.00;10.00;;;;;26.88;37.77;101885.69;4977965;28;46412;-65
2022/07/05 07:40:45;;;;;;;;;7.67;7.67;;;;;26.87;37.57;101886.75;4978016;28;45242;-65
2022/07/05 07:43:10;;;;;;;;;8.00;8.00;;;;;27.07;37.18;101896.69;4994747;28;45462;-66
2022/07/05 07:45:36;;;;;;;;;7.33;7.00;;;;;27.08;37.52;101882.81;4998100;28;45367;-65
2022/07/05 07:48:01;;;;;;;;;8.00;8.00;;;;;27.30;37.55;101898.75;4997891;28;46163;-65
2022/07/05 07:50:26;;;;;;;;;9.67;8.33;;;;;27.44;36.88;101914.75;4997716;28;45419;-64
2022/07/05 07:52:52;;;;;;;;;8.67;7.00;;;;;27.46;36.26;101904.44;4996435;28;45435;-65
2022/07/05 07:55:17;;;;;;;;;10.67;10.67;;;;;27.51;35.96;101903.75;4997669;28;45383;-65
2022/07/05 07:57:42;;;;;;;;;8.33;8.00;;;;;27.13;35.64;101849.34;4996999;28;46543;-64
2022/07/05 08:00:08;;;;;;;;;10.00;7.00;;;;;27.59;36.60;101906.16;4986948;28;45344;-66
2022/07/05 08:02:34;;;;;;;;;8.00;7.33;;;;;27.33;36.22;101830.00;4977655;28;45507;-67
2022/07/05 08:04:59;;;;;;;;;9.33;8.00;;;;;27.94;35.76;101909.09;4977710;28;45399;-66
2022/07/05 08:07:25;;;;;;;;;8.67;8.67;;;;;28.13;35.43;101899.78;4977147;28;46559;-66
2022/07/05 08:09:52;;;;;;;;;9.00;9.00;;;;;28.15;34.86;101889.47;5008886;28;45965;-66
2022/07/05 08:12:18;;;;;;;;;9.67;9.33;;;;;28.42;35.70;101906.31;4976532;28;45570;-66
2022/07/05 08:14:43;;;;;;;;;8.00;8.00;;;;;28.52;34.45;101893.97;4977844;28;45405;-68
2022/07/05 08:17:09;;;;;;;;;8.33;7.00;;;;;28.45;34.28;101864.00;4978344;28;46428;-66
2022/07/05 08:22:20;;;;;;;;;8.33;7.33;;;;;28.82;34.22;101882.94;4974818;28;45579;-67
2022/07/05 08:24:46;;;;;;;;;6.33;6.33;;;;;28.87;33.41;101863.94;4976667;28;45845;-81
2022/07/05 08:27:11;;;;;;;;;7.33;6.67;;;;;29.13;33.44;101879.88;4975103;28;45745;-66
2022/07/05 08:29:37;;;;;;;;;8.33;6.67;;;;;29.32;32.37;101886.88;4975906;28;45410;-67
2022/07/05 08:32:03;;;;;;;;;6.67;6.33;;;;;29.42;32.77;101893.63;4977601;28;45395;-65
2022/07/05 08:34:29;;;;;;;;;5.67;5.67;;;;;29.32;32.88;101837.56;4977671;28;45568;-67
2022/07/05 08:36:54;;;;;;;;;6.33;6.33;;;;;29.82;31.57;101891.75;4976971;28;46249;-65
2022/07/05 08:39:20;;;;;;;;;10.00;9.00;;;;;29.96;31.74;101871.19;4980396;28;45444;-65
2022/07/05 08:41:53;;;;;;;;;10.67;7.67;;;;;30.22;32.10;101871.66;4994975;28;45241;-67
2022/07/05 08:44:20;;;;;;;;;10.33;9.67;;;;;30.58;30.97;101875.84;4997250;28;45503;-65
2022/07/05 08:46:47;;;;;;;;;5.00;5.00;;;;;30.78;31.02;101872.63;4985590;28;47108;-65
2022/07/05 08:49:14;;;;;;;;;5.00;5.00;;;;;31.16;30.08;101893.78;4976906;28;45376;-66
2022/07/05 08:51:41;;;;;;;;;8.00;5.67;;;;;31.14;29.18;101836.34;4992527;28;45266;-66
2022/07/05 08:54:11;;;;;;;;;5.67;4.67;;;;;31.64;28.93;101878.50;4977589;28;45611;-66
2022/07/05 08:56:37;;;;;;;;;4.67;4.33;;;;;31.77;28.49;101859.69;4976669;28;46544;-66
2022/07/05 08:59:03;;;;;;;;;5.67;5.67;;;;;32.15;27.90;101877.13;4981448;28;45276;-66
2022/07/05 09:01:34;;;;;;;;;4.00;4.00;;;;;32.41;27.37;101877.38;4977239;28;45547;-65
2022/07/05 09:04:01;;;;;;;;;4.33;4.33;;;;;32.56;25.81;101869.25;4992213;28;45356;-67
2022/07/05 09:06:27;;;;;;;;;1.67;1.00;;;;;32.34;26.26;101797.81;4996454;28;46419;-66
2022/07/05 09:08:55;;;;;;;;;5.67;3.67;;;;;32.94;25.81;101849.72;4996309;28;45328;-67
2022/07/05 09:11:30;;;;;;;;;2.00;2.00;;;;;33.15;24.95;101858.09;4994825;28;45625;-66
2022/07/05 09:13:56;;;;;;;;;5.00;5.00;;;;;33.36;25.20;101884.69;4985366;28;45399;-67
2022/07/05 09:16:23;;;;;;;;;4.00;4.00;;;;;33.51;25.47;101873.72;4976695;28;45740;-67
2022/07/05 09:18:51;;;;;;;;;5.00;4.00;;;;;33.72;24.47;101876.53;4983100;28;46217;-67
2022/07/05 09:21:26;;;;;;;;;5.33;5.33;;;;;33.80;24.51;101879.59;4987208;28;45605;-67
2022/07/05 09:23:57;;;;;;;;;5.00;5.00;;;;;33.94;24.11;101851.50;4977638;28;45295;-67
2022/07/05 09:26:34;;;;;;;;;5.00;3.00;;;;;34.21;23.62;101870.56;4980608;28;46079;-67
2022/07/05 09:29:02;;;;;;;;;4.00;4.00;;;;;34.37;23.31;101855.69;4994744;28;45582;-66
2022/07/05 09:31:37;;;;;;;;;4.67;4.67;;;;;34.49;22.81;101853.50;4996649;28;45450;-66
2022/07/05 09:34:11;;;;;;;;;7.00;5.67;;;;;34.42;22.94;101815.09;4996312;28;45421;-66
2022/07/05 09:37:03;;;;;;;;;4.33;4.33;;;;;35.02;23.12;101865.00;4994787;28;47410;-67
2022/07/05 09:39:28;;;;;;;;;6.33;5.00;;;;;35.46;22.45;101880.94;4995139;28;48157;-68
2022/07/05 09:42:23;;;;;;;;;7.00;7.00;;;;;35.83;21.64;101866.59;4995151;28;45376;-68
2022/07/05 09:44:51;;;;;;;;;7.33;6.00;;;;;36.11;21.50;101834.63;4995018;28;45425;-68
2022/07/05 09:47:18;;;;;;;;;6.00;6.00;;;;;36.68;21.39;101872.63;4996093;28;45465;-69
2022/07/05 09:49:52;;;;;;;;;4.00;4.00;;;;;36.77;20.88;101839.53;4994766;28;45805;-70
2022/07/05 09:52:36;;;;;;;;;4.67;4.67;;;;;37.01;20.26;101864.53;4995967;28;45399;-71
2022/07/05 09:55:03;;;;;;;;;5.67;4.33;;;;;36.98;20.36;101876.22;4979862;28;45358;-68
2022/07/05 09:57:28;;;;;;;;;5.00;5.00;;;;;36.61;20.19;101854.66;4973162;28;48094;-68
2022/07/05 10:00:01;;;;;;;;;3.67;2.33;;;;;36.53;20.49;101868.06;4975509;28;45278;-68
2022/07/05 10:02:40;;;;;;;;;4.00;4.00;;;;;36.31;20.12;101884.31;4979716;28;46069;-68
2022/07/05 10:05:19;;;;;;;;;4.00;4.00;;;;;35.75;20.41;101865.28;4979953;28;45559;-68
2022/07/05 10:07:51;;;;;;;;;7.00;5.33;;;;;35.11;21.20;101860.56;4987441;28;47315;-69
2022/07/05 10:10:22;;;;;;;;;5.33;4.33;;;;;34.69;21.82;101861.75;4978227;28;45463;-68
2022/07/05 10:12:49;;;;;;;;;5.67;5.00;;;;;34.22;22.54;101877.75;4979448;28;45326;-67
2022/07/05 10:15:18;;;;;;;;;4.67;4.00;;;;;33.66;23.27;101888.66;4987403;28;45417;-68
2022/07/05 10:18:05;;;;;;;;;5.67;4.33;;;;;32.77;23.88;101840.75;4981201;28;45792;-67
2022/07/05 10:20:36;;;;;;;;;5.00;5.00;;;;;32.38;24.38;101876.81;4976679;28;45507;-67
2022/07/05 10:23:04;;;;;;;;;9.00;9.00;;;;;31.38;25.80;101841.63;4979369;28;45291;-68
2022/07/05 10:25:30;;;;;;;;;7.00;6.00;;;;;30.99;26.40;101855.38;4979599;28;45383;-67
2022/07/05 10:27:58;;;;;;;;;7.00;5.67;;;;;30.70;26.32;101862.09;4979886;28;46068;-67
2022/07/05 10:30:24;;;;;;;;;5.67;5.67;;;;;30.51;26.99;101876.03;4980112;28;45254;-68
2022/07/05 10:32:50;;;;;;;;;7.00;6.33;;;;;30.12;27.50;101877.81;4979215;28;45195;-68
2022/07/05 10:35:18;;;;;;;;;4.00;4.00;;;;;29.89;27.98;101881.47;4979255;28;45447;-67
2022/07/05 10:37:47;;;;;;;;;7.33;7.33;;;;;29.42;28.70;101836.91;4979123;28;46007;-67
2022/07/05 10:40:14;;;;;;;;;5.00;5.00;;;;;29.34;28.72;101870.19;4978680;28;45464;-67
2022/07/05 10:42:43;;;;;;;;;6.33;6.33;;;;;29.09;29.37;101881.44;4977650;28;45353;-68
2022/07/05 10:45:41;;;;;;;;;7.67;5.33;;;;;28.83;29.70;101873.66;4977912;28;45420;-68
2022/07/05 10:48:09;;;;;;;;;9.00;7.00;;;;;28.44;30.08;101865.91;4976976;28;48145;-68
2022/07/05 10:51:16;;;;;;;;;10.67;8.00;;;;;28.21;30.51;101874.00;4977202;28;46249;-68
2022/07/05 10:53:42;;;;;;;;;10.67;9.33;;;;;28.12;31.03;101872.69;4979424;28;45420;-70
2022/07/05 10:56:07;;;;;;;;;4.00;4.00;;;;;28.02;31.44;101872.41;4978692;28;45565;-70
2022/07/05 10:58:45;;;;;;;;;5.67;5.67;;;;;27.95;31.04;101864.31;4979402;28;45833;-69
2022/07/05 11:01:28;;;;;;;;;6.00;6.00;;;;;27.90;31.61;101875.13;4987895;28;45714;-71
2022/07/05 11:04:04;;;;;;;;;6.00;4.67;;;;;27.83;31.42;101855.22;4983970;28;45562;-74
2022/07/05 11:06:39;;;;;;;;;5.67;5.67;;;;;27.80;31.76;101853.78;4987998;28;45567;-72
2022/07/05 11:09:10;;;;;;;;;10.00;7.33;;;;;27.72;32.18;101848.66;4991661;28;46242;-71
2022/07/05 11:11:37;;;;;;;;;7.67;7.67;;;;;27.72;31.98;101864.22;4982744;28;45793;-69
2022/07/05 11:14:06;;;;;;;;;7.00;7.00;;;;;27.68;32.66;101857.56;4978349;28;45427;-70
2022/07/05 11:16:33;;;;;;;;;5.33;5.33;;;;;27.63;32.58;101858.22;4977659;28;45214;-69
2022/07/05 11:19:06;;;;;;;;;8.00;8.00;;;;;27.54;32.19;101849.47;4981482;28;46528;-70
2022/07/05 11:21:32;;;;;;;;;5.33;5.33;;;;;27.52;32.64;101861.72;4978525;28;45367;-67
2022/07/05 11:24:24;;;;;;;;;7.00;7.00;;;;;27.48;32.09;101863.25;4978889;28;45279;-70
2022/07/05 11:26:54;;;;;;;;;5.67;5.67;;;;;27.28;31.76;101864.31;4983957;28;45525;-69
2022/07/05 11:29:45;;;;;;;;;5.67;5.67;;;;;27.15;31.68;101863.63;4987824;28;46610;-69
2022/07/05 11:32:13;;;;;;;;;6.00;6.00;;;;;26.84;31.92;101829.91;4975284;28;45392;-69